sensor_id;sensor_type;location;lat;lon;timestamp;pressure;altitude;pressure_sealevel;temperature;humidity
20115;BME280;10218;42.874;25.320;2023-04-04T00:01:26;95992.59;;;10.81;100.00
20115;BME280;10218;42.874;25.320;2023-04-04T00:03:53;95983.16;;;10.98;100.00
20115;BME280;10218;42.874;25.320;2023-04-04T00:06:21;95971.22;;;10.81;100.00
20115;BME280;10218;42.874;25.320;2023-04-04T00:08:48;95982.66;;;10.55;100.00
20115;BME280;10218;42.874;25.320;2023-04-04T00:11:16;95974.81;;;10.47;100.00
20115;BME280;10218;42.874;25.320;2023-04-04T00:13:43;95968.13;;;10.70;100.00
20115;BME280;10218;42.874;25.320;2023-04-04T00:16:11;95960.97;;;10.91;100.00
20115;BME280;10218;42.874;25.320;2023-04-04T00:18:38;95940.81;;;11.08;100.00
20115;BME280;10218;42.874;25.320;2023-04-04T00:21:05;95938.56;;;11.18;100.00
20115;BME280;10218;42.874;25.320;2023-04-04T00:23:32;95946.56;;;10.98;100.00
20115;BME280;10218;42.874;25.320;2023-04-04T00:25:59;95935.50;;;11.14;100.00
20115;BME280;10218;42.874;25.320;2023-04-04T00:28:27;95925.59;;;10.76;100.00
20115;BME280;10218;42.874;25.320;2023-04-04T00:30:54;95942.06;;;10.99;100.00
20115;BME280;10218;42.874;25.320;2023-04-04T00:33:21;95939.59;;;11.04;100.00
20115;BME280;10218;42.874;25.320;2023-04-04T00:35:49;95941.62;;;10.89;100.00
20115;BME280;10218;42.874;25.320;2023-04-04T00:38:16;95936.06;;;10.77;100.00
20115;BME280;10218;42.874;25.320;2023-04-04T00:40:46;95944.50;;;10.74;100.00
20115;BME280;10218;42.874;25.320;2023-04-04T00:43:14;95943.31;;;11.09;100.00
20115;BME280;10218;42.874;25.320;2023-04-04T00:45:43;95948.66;;;11.16;100.00
20115;BME280;10218;42.874;25.320;2023-04-04T00:48:10;95962.03;;;11.16;100.00
20115;BME280;10218;42.874;25.320;2023-04-04T00:50:37;95954.63;;;11.31;100.00
20115;BME280;10218;42.874;25.320;2023-04-04T00:53:05;95943.72;;;11.46;100.00
20115;BME280;10218;42.874;25.320;2023-04-04T00:55:36;95947.59;;;11.43;100.00
20115;BME280;10218;42.874;25.320;2023-04-04T00:58:04;95937.13;;;11.55;100.00
20115;BME280;10218;42.874;25.320;2023-04-04T01:00:36;95927.25;;;11.36;100.00
20115;BME280;10218;42.874;25.320;2023-04-04T01:03:03;95926.84;;;11.45;100.00
20115;BME280;10218;42.874;25.320;2023-04-04T01:05:33;95913.06;;;11.35;100.00
20115;BME280;10218;42.874;25.320;2023-04-04T01:08:00;95914.28;;;11.52;100.00
20115;BME280;10218;42.874;25.320;2023-04-04T01:10:32;95915.13;;;11.33;100.00
20115;BME280;10218;42.874;25.320;2023-04-04T01:13:00;95906.09;;;11.21;100.00
20115;BME280;10218;42.874;25.320;2023-04-04T01:15:28;95907.28;;;11.38;100.00
20115;BME280;10218;42.874;25.320;2023-04-04T01:17:57;95912.44;;;11.46;100.00
20115;BME280;10218;42.874;25.320;2023-04-04T01:20:29;95902.97;;;11.44;100.00
20115;BME280;10218;42.874;25.320;2023-04-04T01:22:58;95908.50;;;11.55;100.00
20115;BME280;10218;42.874;25.320;2023-04-04T01:25:28;95905.88;;;11.29;100.00
20115;BME280;10218;42.874;25.320;2023-04-04T01:27:58;95897.88;;;11.16;100.00
20115;BME280;10218;42.874;25.320;2023-04-04T01:30:28;95899.50;;;11.30;100.00
20115;BME280;10218;42.874;25.320;2023-04-04T01:38:37;95903.19;;;11.23;100.00
20115;BME280;10218;42.874;25.320;2023-04-04T01:41:09;95903.19;;;11.42;100.00
20115;BME280;10218;42.874;25.320;2023-04-04T01:43:37;95895.34;;;11.54;100.00
20115;BME280;10218;42.874;25.320;2023-04-04T01:46:04;95892.50;;;11.42;100.00
20115;BME280;10218;42.874;25.320;2023-04-04T01:48:32;95895.16;;;11.49;100.00
20115;BME280;10218;42.874;25.320;2023-04-04T01:51:00;95897.25;;;11.27;100.00
20115;BME280;10218;42.874;25.320;2023-04-04T01:53:28;95893.13;;;11.25;100.00
20115;BME280;10218;42.874;25.320;2023-04-04T01:55:55;95885.94;;;11.32;100.00
20115;BME280;10218;42.874;25.320;2023-04-04T01:58:22;95886.97;;;11.24;100.00
20115;BME280;10218;42.874;25.320;2023-04-04T02:00:49;95888.19;;;11.28;100.00
20115;BME280;10218;42.874;25.320;2023-04-04T02:03:17;95884.50;;;11.09;100.00
20115;BME280;10218;42.874;25.320;2023-04-04T02:05:43;95886.16;;;11.10;100.00
20115;BME280;10218;42.874;25.320;2023-04-04T02:08:11;95900.53;;;11.23;100.00
20115;BME280;10218;42.874;25.320;2023-04-04T02:10:38;95887.38;;;11.21;100.00
20115;BME280;10218;42.874;25.320;2023-04-04T02:13:06;95902.38;;;11.09;100.00
20115;BME280;10218;42.874;25.320;2023-04-04T02:15:34;95903.44;;;11.01;100.00
20115;BME280;10218;42.874;25.320;2023-04-04T02:18:01;95900.94;;;11.00;100.00
20115;BME280;10218;42.874;25.320;2023-04-04T02:20:29;95900.75;;;11.01;100.00
20115;BME280;10218;42.874;25.320;2023-04-04T02:22:56;95907.13;;;11.07;100.00
20115;BME280;10218;42.874;25.320;2023-04-04T02:25:24;95908.75;;;11.08;100.00
20115;BME280;10218;42.874;25.320;2023-04-04T02:27:51;95916.56;;;11.09;100.00
20115;BME280;10218;42.874;25.320;2023-04-04T02:30:19;95919.44;;;11.08;100.00
20115;BME280;10218;42.874;25.320;2023-04-04T02:32:46;95916.75;;;11.34;100.00
20115;BME280;10218;42.874;25.320;2023-04-04T02:35:14;95919.25;;;11.16;100.00
20115;BME280;10218;42.874;25.320;2023-04-04T02:37:46;95907.50;;;10.97;100.00
20115;BME280;10218;42.874;25.320;2023-04-04T02:40:15;95910.41;;;10.89;100.00
20115;BME280;10218;42.874;25.320;2023-04-04T02:42:43;95911.22;;;11.09;100.00
20115;BME280;10218;42.874;25.320;2023-04-04T02:45:11;95908.13;;;10.93;100.00
20115;BME280;10218;42.874;25.320;2023-04-04T02:47:41;95917.19;;;10.92;100.00
20115;BME280;10218;42.874;25.320;2023-04-04T02:50:09;95912.03;;;11.23;100.00
20115;BME280;10218;42.874;25.320;2023-04-04T02:52:37;95916.97;;;11.13;100.00
20115;BME280;10218;42.874;25.320;2023-04-04T02:55:06;95928.09;;;11.17;100.00
20115;BME280;10218;42.874;25.320;2023-04-04T02:57:34;95920.25;;;10.89;100.00
20115;BME280;10218;42.874;25.320;2023-04-04T03:00:01;95916.16;;;10.80;100.00
20115;BME280;10218;42.874;25.320;2023-04-04T03:02:31;95920.47;;;10.81;100.00
20115;BME280;10218;42.874;25.320;2023-04-04T03:04:58;95913.06;;;10.83;100.00
20115;BME280;10218;42.874;25.320;2023-04-04T03:07:25;95913.91;;;10.90;100.00
20115;BME280;10218;42.874;25.320;2023-04-04T03:09:52;95920.66;;;10.79;100.00
20115;BME280;10218;42.874;25.320;2023-04-04T03:12:19;95917.56;;;10.82;100.00
20115;BME280;10218;42.874;25.320;2023-04-04T03:14:48;95908.34;;;10.71;100.00
20115;BME280;10218;42.874;25.320;2023-04-04T03:17:15;95902.75;;;10.53;100.00
20115;BME280;10218;42.874;25.320;2023-04-04T03:19:44;95892.91;;;10.73;100.00
20115;BME280;10218;42.874;25.320;2023-04-04T03:22:11;95886.94;;;10.58;100.00
20115;BME280;10218;42.874;25.320;2023-04-04T03:24:38;95874.19;;;10.54;100.00
20115;BME280;10218;42.874;25.320;2023-04-04T03:27:06;95870.53;;;10.61;100.00
20115;BME280;10218;42.874;25.320;2023-04-04T03:29:33;95875.88;;;10.75;100.00
20115;BME280;10218;42.874;25.320;2023-04-04T03:32:01;95867.66;;;10.69;100.00
20115;BME280;10218;42.874;25.320;2023-04-04T03:34:28;95870.72;;;10.93;100.00
20115;BME280;10218;42.874;25.320;2023-04-04T03:36:57;95873.19;;;10.88;100.00
20115;BME280;10218;42.874;25.320;2023-04-04T03:39:27;95861.06;;;10.79;100.00
20115;BME280;10218;42.874;25.320;2023-04-04T03:41:58;95862.09;;;10.71;100.00
20115;BME280;10218;42.874;25.320;2023-04-04T03:44:25;95873.62;;;10.71;100.00
20115;BME280;10218;42.874;25.320;2023-04-04T03:46:52;95866.22;;;10.80;100.00
20115;BME280;10218;42.874;25.320;2023-04-04T03:49:19;95863.72;;;10.59;100.00
20115;BME280;10218;42.874;25.320;2023-04-04T03:51:47;95861.25;;;10.64;100.00
20115;BME280;10218;42.874;25.320;2023-04-04T03:54:14;95858.38;;;10.59;100.00
20115;BME280;10218;42.874;25.320;2023-04-04T03:56:42;95859.41;;;10.51;100.00
20115;BME280;10218;42.874;25.320;2023-04-04T03:59:09;95862.91;;;10.45;100.00
20115;BME280;10218;42.874;25.320;2023-04-04T04:01:36;95863.31;;;10.55;100.00
20115;BME280;10218;42.874;25.320;2023-04-04T04:04:04;95866.00;;;10.68;100.00
20115;BME280;10218;42.874;25.320;2023-04-04T04:06:30;95857.19;;;10.81;100.00
20115;BME280;10218;42.874;25.320;2023-04-04T04:08:58;95865.59;;;10.65;100.00
20115;BME280;10218;42.874;25.320;2023-04-04T04:11:26;95869.28;;;10.64;100.00
20115;BME280;10218;42.874;25.320;2023-04-04T04:13:53;95873.81;;;10.77;100.00
20115;BME280;10218;42.874;25.320;2023-04-04T04:16:21;95871.75;;;11.05;100.00
20115;BME280;10218;42.874;25.320;2023-04-04T04:18:48;95871.97;;;10.90;100.00
20115;BME280;10218;42.874;25.320;2023-04-04T04:21:16;95863.31;;;10.62;100.00
20115;BME280;10218;42.874;25.320;2023-04-04T04:23:43;95875.97;;;10.27;100.00
20115;BME280;10218;42.874;25.320;2023-04-04T04:26:10;95884.87;;;10.54;100.00
20115;BME280;10218;42.874;25.320;2023-04-04T04:28:38;95882.03;;;10.75;100.00
20115;BME280;10218;42.874;25.320;2023-04-04T04:31:07;95883.84;;;10.55;100.00
20115;BME280;10218;42.874;25.320;2023-04-04T04:33:39;95877.81;;;10.20;100.00
20115;BME280;10218;42.874;25.320;2023-04-04T04:36:07;95885.69;;;10.54;100.00
20115;BME280;10218;42.874;25.320;2023-04-04T04:38:35;95890.66;;;10.64;100.00
20115;BME280;10218;42.874;25.320;2023-04-04T04:41:02;95890.41;;;10.52;100.00
20115;BME280;10218;42.874;25.320;2023-04-04T04:43:31;95906.34;;;10.19;100.00
20115;BME280;10218;42.874;25.320;2023-04-04T04:45:58;95908.06;;;9.93;100.00
20115;BME280;10218;42.874;25.320;2023-04-04T04:48:26;95919.69;;;10.26;100.00
20115;BME280;10218;42.874;25.320;2023-04-04T04:50:53;95912.59;;;10.53;100.00
20115;BME280;10218;42.874;25.320;2023-04-04T04:53:21;95907.50;;;10.84;100.00
20115;BME280;10218;42.874;25.320;2023-04-04T04:55:48;95905.69;;;11.04;100.00
20115;BME280;10218;42.874;25.320;2023-04-04T04:58:18;95904.22;;;10.89;100.00
20115;BME280;10218;42.874;25.320;2023-04-04T05:00:55;95910.00;;;10.99;100.00
20115;BME280;10218;42.874;25.320;2023-04-04T05:03:24;95907.09;;;10.81;100.00
20115;BME280;10218;42.874;25.320;2023-04-04T05:05:52;95905.03;;;10.69;100.00
20115;BME280;10218;42.874;25.320;2023-04-04T05:08:19;95907.09;;;10.61;100.00
20115;BME280;10218;42.874;25.320;2023-04-04T05:10:47;95909.56;;;10.82;100.00
20115;BME280;10218;42.874;25.320;2023-04-04T05:13:14;95907.31;;;10.79;100.00
20115;BME280;10218;42.874;25.320;2023-04-04T05:15:42;95905.28;;;11.21;100.00
20115;BME280;10218;42.874;25.320;2023-04-04T05:18:09;95908.97;;;11.13;100.00
20115;BME280;10218;42.874;25.320;2023-04-04T05:20:36;95905.28;;;11.01;100.00
20115;BME280;10218;42.874;25.320;2023-04-04T05:23:04;95906.28;;;10.93;100.00
20115;BME280;10218;42.874;25.320;2023-04-04T05:25:31;95899.50;;;11.10;100.00
20115;BME280;10218;42.874;25.320;2023-04-04T05:27:59;95906.69;;;11.23;100.00
20115;BME280;10218;42.874;25.320;2023-04-04T05:30:26;95891.47;;;11.24;100.00
20115;BME280;10218;42.874;25.320;2023-04-04T05:32:53;95886.56;;;11.27;100.00
20115;BME280;10218;42.874;25.320;2023-04-04T05:35:21;95897.22;;;10.75;100.00
20115;BME280;10218;42.874;25.320;2023-04-04T05:37:49;95904.84;;;11.10;100.00
20115;BME280;10218;42.874;25.320;2023-04-04T05:40:16;95898.69;;;11.17;100.00
20115;BME280;10218;42.874;25.320;2023-04-04T05:42:53;95899.31;;;10.99;100.00
20115;BME280;10218;42.874;25.320;2023-04-04T05:45:21;95895.38;;;11.08;100.00
20115;BME280;10218;42.874;25.320;2023-04-04T05:47:49;95894.16;;;11.04;100.00
20115;BME280;10218;42.874;25.320;2023-04-04T05:50:17;95893.87;;;11.58;100.00
20115;BME280;10218;42.874;25.320;2023-04-04T05:52:47;95891.00;;;11.66;100.00
20115;BME280;10218;42.874;25.320;2023-04-04T05:55:15;95888.19;;;11.15;100.00
20115;BME280;10218;42.874;25.320;2023-04-04T05:57:49;95901.16;;;11.18;100.00
20115;BME280;10218;42.874;25.320;2023-04-04T06:00:18;95898.06;;;11.47;100.00
20115;BME280;10218;42.874;25.320;2023-04-04T06:02:46;95895.19;;;11.29;100.00
20115;BME280;10218;42.874;25.320;2023-04-04T06:05:14;95915.75;;;11.22;100.00
20115;BME280;10218;42.874;25.320;2023-04-04T06:07:41;95910.00;;;11.19;100.00
20115;BME280;10218;42.874;25.320;2023-04-04T06:10:09;95905.03;;;11.29;100.00
20115;BME280;10218;42.874;25.320;2023-04-04T06:12:36;95917.41;;;10.97;100.00
20115;BME280;10218;42.874;25.320;2023-04-04T06:15:06;95910.81;;;10.99;100.00
20115;BME280;10218;42.874;25.320;2023-04-04T06:17:34;95905.22;;;10.68;100.00
20115;BME280;10218;42.874;25.320;2023-04-04T06:20:02;95915.09;;;10.61;100.00
20115;BME280;10218;42.874;25.320;2023-04-04T06:22:32;95919.81;;;10.65;100.00
20115;BME280;10218;42.874;25.320;2023-04-04T06:25:01;95916.16;;;11.12;100.00
20115;BME280;10218;42.874;25.320;2023-04-04T06:27:28;95917.41;;;10.97;100.00
20115;BME280;10218;42.874;25.320;2023-04-04T06:29:56;95919.44;;;10.82;100.00
20115;BME280;10218;42.874;25.320;2023-04-04T06:32:23;95923.53;;;10.97;100.00
20115;BME280;10218;42.874;25.320;2023-04-04T06:34:51;95924.38;;;11.57;100.00
20115;BME280;10218;42.874;25.320;2023-04-04T06:37:21;95921.91;;;11.03;100.00
20115;BME280;10218;42.874;25.320;2023-04-04T06:39:48;95917.81;;;11.07;100.00
20115;BME280;10218;42.874;25.320;2023-04-04T06:42:17;95923.94;;;11.53;100.00
20115;BME280;10218;42.874;25.320;2023-04-04T06:44:45;95919.62;;;12.30;100.00
20115;BME280;10218;42.874;25.320;2023-04-04T06:47:12;95918.84;;;12.23;100.00
20115;BME280;10218;42.874;25.320;2023-04-04T06:49:40;95915.91;;;11.53;100.00
20115;BME280;10218;42.874;25.320;2023-04-04T06:52:07;95921.25;;;11.80;100.00
20115;BME280;10218;42.874;25.320;2023-04-04T06:54:34;95920.16;;;11.94;100.00
20115;BME280;10218;42.874;25.320;2023-04-04T06:57:01;95920.69;;;11.25;100.00
20115;BME280;10218;42.874;25.320;2023-04-04T06:59:28;95927.47;;;11.47;100.00
20115;BME280;10218;42.874;25.320;2023-04-04T07:01:56;95935.09;;;11.37;100.00
20115;BME280;10218;42.874;25.320;2023-04-04T07:04:23;95939.59;;;11.10;100.00
20115;BME280;10218;42.874;25.320;2023-04-04T07:06:51;95942.06;;;11.25;100.00
20115;BME280;10218;42.874;25.320;2023-04-04T07:09:18;95931.16;;;11.13;100.00
20115;BME280;10218;42.874;25.320;2023-04-04T07:11:51;95940.41;;;11.77;100.00
20115;BME280;10218;42.874;25.320;2023-04-04T07:14:19;95946.59;;;11.31;100.00
20115;BME280;10218;42.874;25.320;2023-04-04T07:16:51;95929.25;;;11.93;100.00
20115;BME280;10218;42.874;25.320;2023-04-04T07:19:18;95945.06;;;12.01;100.00
20115;BME280;10218;42.874;25.320;2023-04-04T07:21:45;95945.31;;;11.80;100.00
20115;BME280;10218;42.874;25.320;2023-04-04T07:24:12;95942.88;;;11.78;100.00
20115;BME280;10218;42.874;25.320;2023-04-04T07:26:39;95950.28;;;11.30;100.00
20115;BME280;10218;42.874;25.320;2023-04-04T07:29:06;95947.19;;;11.66;100.00
20115;BME280;10218;42.874;25.320;2023-04-04T07:31:34;95942.47;;;11.62;100.00
20115;BME280;10218;42.874;25.320;2023-04-04T07:34:01;95946.19;;;11.47;100.00
20115;BME280;10218;42.874;25.320;2023-04-04T07:36:29;95947.63;;;11.24;100.00
20115;BME280;10218;42.874;25.320;2023-04-04T07:38:57;95947.41;;;11.25;100.00
20115;BME280;10218;42.874;25.320;2023-04-04T07:41:24;95949.88;;;11.46;100.00
20115;BME280;10218;42.874;25.320;2023-04-04T07:43:52;95947.00;;;11.15;100.00
20115;BME280;10218;42.874;25.320;2023-04-04T07:46:19;95946.37;;;11.00;100.00
20115;BME280;10218;42.874;25.320;2023-04-04T07:48:46;95951.09;;;10.98;100.00
20115;BME280;10218;42.874;25.320;2023-04-04T07:51:14;95937.75;;;10.91;100.00
20115;BME280;10218;42.874;25.320;2023-04-04T07:53:41;95946.19;;;11.01;100.00
20115;BME280;10218;42.874;25.320;2023-04-04T07:56:08;95942.88;;;10.86;100.00
20115;BME280;10218;42.874;25.320;2023-04-04T07:58:35;95953.19;;;11.15;100.00
20115;BME280;10218;42.874;25.320;2023-04-04T08:01:02;95956.66;;;11.09;100.00
20115;BME280;10218;42.874;25.320;2023-04-04T08:03:30;95953.53;;;10.80;100.00
20115;BME280;10218;42.874;25.320;2023-04-04T08:05:56;95965.50;;;10.97;100.00
20115;BME280;10218;42.874;25.320;2023-04-04T08:08:24;95962.59;;;10.98;100.00
20115;BME280;10218;42.874;25.320;2023-04-04T08:10:51;95960.16;;;11.10;100.00
20115;BME280;10218;42.874;25.320;2023-04-04T08:13:18;95961.34;;;10.88;100.00
20115;BME280;10218;42.874;25.320;2023-04-04T08:15:45;95960.34;;;10.89;100.00
20115;BME280;10218;42.874;25.320;2023-04-04T08:18:13;95958.78;;;10.47;100.00
20115;BME280;10218;42.874;25.320;2023-04-04T08:20:40;95964.38;;;10.58;100.00
20115;BME280;10218;42.874;25.320;2023-04-04T08:23:07;95962.78;;;10.70;100.00
20115;BME280;10218;42.874;25.320;2023-04-04T08:25:35;95962.72;;;10.51;100.00
20115;BME280;10218;42.874;25.320;2023-04-04T08:28:02;95963.34;;;10.59;100.00
20115;BME280;10218;42.874;25.320;2023-04-04T08:30:32;95966.66;;;10.61;100.00
20115;BME280;10218;42.874;25.320;2023-04-04T08:32:59;95972.62;;;10.70;100.00
20115;BME280;10218;42.874;25.320;2023-04-04T08:35:26;95971.34;;;10.53;100.00
20115;BME280;10218;42.874;25.320;2023-04-04T08:37:53;95972.00;;;10.61;100.00
20115;BME280;10218;42.874;25.320;2023-04-04T08:40:20;95962.19;;;10.21;100.00
20115;BME280;10218;42.874;25.320;2023-04-04T08:42:49;95969.37;;;10.20;100.00
20115;BME280;10218;42.874;25.320;2023-04-04T08:45:17;95975.75;;;10.19;100.00
20115;BME280;10218;42.874;25.320;2023-04-04T08:47:48;95980.00;;;10.61;100.00
20115;BME280;10218;42.874;25.320;2023-04-04T08:50:18;95971.78;;;10.56;100.00
20115;BME280;10218;42.874;25.320;2023-04-04T08:52:46;95988.09;;;9.93;100.00
20115;BME280;10218;42.874;25.320;2023-04-04T08:55:13;95985.59;;;10.19;100.00
20115;BME280;10218;42.874;25.320;2023-04-04T08:57:41;95985.41;;;10.27;100.00
20115;BME280;10218;42.874;25.320;2023-04-04T09:00:09;95999.44;;;10.08;100.00
20115;BME280;10218;42.874;25.320;2023-04-04T09:02:57;95990.81;;;10.06;100.00
20115;BME280;10218;42.874;25.320;2023-04-04T09:05:26;95989.00;;;10.13;100.00
20115;BME280;10218;42.874;25.320;2023-04-04T09:07:54;95995.47;;;10.32;100.00
20115;BME280;10218;42.874;25.320;2023-04-04T09:10:22;95999.50;;;10.55;100.00
20115;BME280;10218;42.874;25.320;2023-04-04T09:12:50;95996.34;;;11.06;100.00
20115;BME280;10218;42.874;25.320;2023-04-04T09:15:17;95993.84;;;10.85;100.00
20115;BME280;10218;42.874;25.320;2023-04-04T09:17:45;95988.34;;;11.26;100.00
20115;BME280;10218;42.874;25.320;2023-04-04T09:20:38;95993.22;;;10.89;100.00
20115;BME280;10218;42.874;25.320;2023-04-04T09:23:11;95995.66;;;10.23;100.00
20115;BME280;10218;42.874;25.320;2023-04-04T09:25:54;96001.38;;;10.61;100.00
20115;BME280;10218;42.874;25.320;2023-04-04T09:28:29;96005.47;;;10.16;100.00
20115;BME280;10218;42.874;25.320;2023-04-04T09:30:59;96020.28;;;10.19;100.00
20115;BME280;10218;42.874;25.320;2023-04-04T09:33:26;96032.78;;;9.91;100.00
20115;BME280;10218;42.874;25.320;2023-04-04T09:35:56;96037.50;;;9.61;100.00
20115;BME280;10218;42.874;25.320;2023-04-04T09:38:25;96036.63;;;9.81;100.00
20115;BME280;10218;42.874;25.320;2023-04-04T09:40:54;96037.63;;;10.36;100.00
20115;BME280;10218;42.874;25.320;2023-04-04T09:50:24;96025.84;;;9.90;100.00
20115;BME280;10218;42.874;25.320;2023-04-04T09:52:51;96027.28;;;10.20;100.00
20115;BME280;10218;42.874;25.320;2023-04-04T09:55:18;96031.00;;;10.32;100.00
20115;BME280;10218;42.874;25.320;2023-04-04T09:57:46;96037.13;;;10.26;100.00
20115;BME280;10218;42.874;25.320;2023-04-04T10:00:19;96045.59;;;10.02;100.00
20115;BME280;10218;42.874;25.320;2023-04-04T10:02:47;96047.06;;;10.04;100.00
20115;BME280;10218;42.874;25.320;2023-04-04T10:05:15;96039.06;;;9.76;100.00
20115;BME280;10218;42.874;25.320;2023-04-04T10:07:43;96038.84;;;9.50;100.00
20115;BME280;10218;42.874;25.320;2023-04-04T10:10:12;96046.38;;;9.96;100.00
20115;BME280;10218;42.874;25.320;2023-04-04T10:12:44;96049.88;;;10.65;100.00
20115;BME280;10218;42.874;25.320;2023-04-04T10:15:14;96057.34;;;10.35;100.00
20115;BME280;10218;42.874;25.320;2023-04-04T10:17:43;96058.22;;;10.14;100.00
20115;BME280;10218;42.874;25.320;2023-04-04T10:20:11;96064.62;;;10.20;100.00
20115;BME280;10218;42.874;25.320;2023-04-04T10:22:39;96068.84;;;9.80;100.00
20115;BME280;10218;42.874;25.320;2023-04-04T10:25:07;96071.66;;;10.00;100.00
20115;BME280;10218;42.874;25.320;2023-04-04T10:27:35;96068.03;;;9.79;100.00
20115;BME280;10218;42.874;25.320;2023-04-04T10:30:05;96071.78;;;9.92;100.00
20115;BME280;10218;42.874;25.320;2023-04-04T10:32:57;96069.00;;;10.00;100.00
20115;BME280;10218;42.874;25.320;2023-04-04T10:35:27;96075.50;;;10.18;100.00
20115;BME280;10218;42.874;25.320;2023-04-04T10:37:57;96074.22;;;10.14;100.00
20115;BME280;10218;42.874;25.320;2023-04-04T10:40:34;96085.47;;;10.10;100.00
20115;BME280;10218;42.874;25.320;2023-04-04T10:43:04;96085.91;;;10.13;100.00
20115;BME280;10218;42.874;25.320;2023-04-04T10:45:34;96092.31;;;9.91;100.00
20115;BME280;10218;42.874;25.320;2023-04-04T10:48:02;96084.31;;;9.42;100.00
20115;BME280;10218;42.874;25.320;2023-04-04T10:50:29;96084.16;;;9.71;100.00
20115;BME280;10218;42.874;25.320;2023-04-04T10:52:59;96085.78;;;9.94;100.00
20115;BME280;10218;42.874;25.320;2023-04-04T10:55:28;96078.34;;;10.17;100.00
20115;BME280;10218;42.874;25.320;2023-04-04T10:57:56;96081.25;;;10.22;100.00
20115;BME280;10218;42.874;25.320;2023-04-04T11:00:24;96053.97;;;10.26;100.00
20115;BME280;10218;42.874;25.320;2023-04-04T11:08:03;96063.88;;;11.80;100.00
20115;BME280;10218;42.874;25.320;2023-04-04T11:10:37;96069.13;;;12.46;100.00
20115;BME280;10218;42.874;25.320;2023-04-04T11:13:14;96065.72;;;12.83;100.00
20115;BME280;10218;42.874;25.320;2023-04-04T11:15:57;96063.56;;;12.48;100.00
20115;BME280;10218;42.874;25.320;2023-04-04T11:21:05;96068.22;;;12.72;100.00
20115;BME280;10218;42.874;25.320;2023-04-04T11:26:33;96076.22;;;11.68;100.00
20115;BME280;10218;42.874;25.320;2023-04-04T11:29:02;96080.00;;;10.52;100.00
20115;BME280;10218;42.874;25.320;2023-04-04T11:34:11;96090.41;;;10.13;100.00
20115;BME280;10218;42.874;25.320;2023-04-04T11:39:28;96089.59;;;10.40;100.00
20115;BME280;10218;42.874;25.320;2023-04-04T11:42:06;96092.19;;;10.68;100.00
20115;BME280;10218;42.874;25.320;2023-04-04T11:47:26;96086.53;;;10.91;100.00
20115;BME280;10218;42.874;25.320;2023-04-04T11:49:55;96098.69;;;10.52;100.00
20115;BME280;10218;42.874;25.320;2023-04-04T11:52:22;96109.47;;;10.65;100.00
20115;BME280;10218;42.874;25.320;2023-04-04T11:54:51;96101.78;;;10.97;100.00
20115;BME280;10218;42.874;25.320;2023-04-04T11:57:19;96110.53;;;10.78;100.00
20115;BME280;10218;42.874;25.320;2023-04-04T11:59:48;96117.16;;;10.47;100.00
20115;BME280;10218;42.874;25.320;2023-04-04T12:02:23;96125.47;;;10.31;100.00
20115;BME280;10218;42.874;25.320;2023-04-04T12:04:53;96127.03;;;10.19;100.00
20115;BME280;10218;42.874;25.320;2023-04-04T12:07:22;96136.66;;;10.48;100.00
20115;BME280;10218;42.874;25.320;2023-04-04T12:09:53;96141.31;;;10.11;100.00
20115;BME280;10218;42.874;25.320;2023-04-04T12:12:22;96142.13;;;10.12;100.00
20115;BME280;10218;42.874;25.320;2023-04-04T12:14:48;96145.50;;;9.71;100.00
20115;BME280;10218;42.874;25.320;2023-04-04T12:17:16;96162.28;;;9.44;100.00
20115;BME280;10218;42.874;25.320;2023-04-04T12:19:43;96159.44;;;8.95;100.00
20115;BME280;10218;42.874;25.320;2023-04-04T12:22:10;96172.13;;;8.49;100.00
20115;BME280;10218;42.874;25.320;2023-04-04T12:24:37;96180.31;;;8.62;100.00
20115;BME280;10218;42.874;25.320;2023-04-04T12:27:05;96179.84;;;8.44;100.00
20115;BME280;10218;42.874;25.320;2023-04-04T12:29:32;96181.41;;;8.82;100.00
20115;BME280;10218;42.874;25.320;2023-04-04T12:32:04;96185.91;;;8.00;100.00
20115;BME280;10218;42.874;25.320;2023-04-04T12:34:34;96180.03;;;8.05;100.00
20115;BME280;10218;42.874;25.320;2023-04-04T12:37:02;96201.53;;;7.81;100.00
20115;BME280;10218;42.874;25.320;2023-04-04T12:39:30;96191.06;;;7.79;100.00
20115;BME280;10218;42.874;25.320;2023-04-04T12:41:59;96203.84;;;8.21;100.00
20115;BME280;10218;42.874;25.320;2023-04-04T12:44:38;96199.41;;;8.13;100.00
20115;BME280;10218;42.874;25.320;2023-04-04T12:47:07;96209.12;;;8.44;100.00
20115;BME280;10218;42.874;25.320;2023-04-04T12:52:06;96201.81;;;8.23;100.00
20115;BME280;10218;42.874;25.320;2023-04-04T12:54:37;96202.63;;;8.24;100.00
20115;BME280;10218;42.874;25.320;2023-04-04T12:57:05;96204.00;;;8.20;100.00
20115;BME280;10218;42.874;25.320;2023-04-04T12:59:34;96199.03;;;8.39;100.00
20115;BME280;10218;42.874;25.320;2023-04-04T13:02:06;96205.84;;;8.42;100.00
20115;BME280;10218;42.874;25.320;2023-04-04T13:04:34;96205.09;;;8.48;100.00
20115;BME280;10218;42.874;25.320;2023-04-04T13:07:01;96202.69;;;9.12;100.00
20115;BME280;10218;42.874;25.320;2023-04-04T13:09:29;96210.06;;;8.80;100.00
20115;BME280;10218;42.874;25.320;2023-04-04T13:12:02;96215.38;;;8.80;100.00
20115;BME280;10218;42.874;25.320;2023-04-04T13:14:59;96220.16;;;8.55;100.00
20115;BME280;10218;42.874;25.320;2023-04-04T13:17:43;96232.75;;;8.62;100.00
20115;BME280;10218;42.874;25.320;2023-04-04T13:20:11;96228.97;;;8.85;100.00
20115;BME280;10218;42.874;25.320;2023-04-04T13:22:39;96232.69;;;9.35;100.00